sensor_id;sensor_type;location;lat;lon;timestamp;P1;durP1;ratioP1;P2;durP2;ratioP2
33644;SDS011;19986;48.190;16.366;2023-04-25T00:01:20;39.85;;;37.85;;
33644;SDS011;19986;48.190;16.366;2023-04-25T00:03:47;39.33;;;37.38;;
33644;SDS011;19986;48.190;16.366;2023-04-25T00:06:14;41.97;;;39.78;;
33644;SDS011;19986;48.190;16.366;2023-04-25T00:08:40;40.55;;;38.65;;
33644;SDS011;19986;48.190;16.366;2023-04-25T00:11:06;38.80;;;36.90;;
33644;SDS011;19986;48.190;16.366;2023-04-25T00:13:31;39.20;;;37.35;;
33644;SDS011;19986;48.190;16.366;2023-04-25T00:15:57;37.85;;;35.97;;
33644;SDS011;19986;48.190;16.366;2023-04-25T00:18:23;41.10;;;39.20;;
33644;SDS011;19986;48.190;16.366;2023-04-25T00:20:49;40.58;;;38.67;;
33644;SDS011;19986;48.190;16.366;2023-04-25T00:23:16;41.47;;;39.40;;
33644;SDS011;19986;48.190;16.366;2023-04-25T00:25:45;39.90;;;38.00;;
33644;SDS011;19986;48.190;16.366;2023-04-25T00:28:12;41.35;;;39.42;;
33644;SDS011;19986;48.190;16.366;2023-04-25T00:30:39;38.33;;;36.53;;
33644;SDS011;19986;48.190;16.366;2023-04-25T00:33:05;42.00;;;40.00;;
33644;SDS011;19986;48.190;16.366;2023-04-25T00:35:31;38.58;;;36.75;;
33644;SDS011;19986;48.190;16.366;2023-04-25T00:37:57;41.35;;;39.40;;
33644;SDS011;19986;48.190;16.366;2023-04-25T00:40:23;40.35;;;38.35;;
33644;SDS011;19986;48.190;16.366;2023-04-25T00:42:50;39.75;;;37.85;;
33644;SDS011;19986;48.190;16.366;2023-04-25T00:45:17;40.20;;;38.17;;
33644;SDS011;19986;48.190;16.366;2023-04-25T00:47:43;41.83;;;39.83;;
33644;SDS011;19986;48.190;16.366;2023-04-25T00:50:10;42.92;;;40.90;;
33644;SDS011;19986;48.190;16.366;2023-04-25T00:52:37;41.00;;;39.08;;
33644;SDS011;19986;48.190;16.366;2023-04-25T00:55:05;38.78;;;36.88;;
33644;SDS011;19986;48.190;16.366;2023-04-25T00:57:32;43.83;;;41.72;;
33644;SDS011;19986;48.190;16.366;2023-04-25T00:59:58;41.20;;;39.10;;
33644;SDS011;19986;48.190;16.366;2023-04-25T01:02:24;42.85;;;40.75;;
33644;SDS011;19986;48.190;16.366;2023-04-25T01:04:52;39.97;;;37.88;;
33644;SDS011;19986;48.190;16.366;2023-04-25T01:07:18;41.33;;;39.22;;
33644;SDS011;19986;48.190;16.366;2023-04-25T01:09:45;41.70;;;39.70;;
33644;SDS011;19986;48.190;16.366;2023-04-25T01:12:11;41.28;;;39.38;;
33644;SDS011;19986;48.190;16.366;2023-04-25T01:14:38;39.67;;;37.78;;
33644;SDS011;19986;48.190;16.366;2023-04-25T01:17:04;38.30;;;36.42;;
33644;SDS011;19986;48.190;16.366;2023-04-25T01:19:30;42.20;;;40.25;;
33644;SDS011;19986;48.190;16.366;2023-04-25T01:21:56;41.28;;;39.38;;
33644;SDS011;19986;48.190;16.366;2023-04-25T01:24:22;40.30;;;38.40;;
33644;SDS011;19986;48.190;16.366;2023-04-25T01:26:48;41.53;;;39.53;;
33644;SDS011;19986;48.190;16.366;2023-04-25T01:29:16;41.53;;;39.63;;
33644;SDS011;19986;48.190;16.366;2023-04-25T01:31:45;45.00;;;42.90;;
33644;SDS011;19986;48.190;16.366;2023-04-25T01:34:12;42.10;;;39.88;;
33644;SDS011;19986;48.190;16.366;2023-04-25T01:36:38;41.03;;;39.13;;
33644;SDS011;19986;48.190;16.366;2023-04-25T01:39:04;43.05;;;40.95;;
33644;SDS011;19986;48.190;16.366;2023-04-25T01:41:30;42.80;;;40.80;;
33644;SDS011;19986;48.190;16.366;2023-04-25T01:43:56;40.50;;;38.50;;
33644;SDS011;19986;48.190;16.366;2023-04-25T01:46:22;41.17;;;39.17;;
33644;SDS011;19986;48.190;16.366;2023-04-25T01:48:49;41.58;;;39.38;;
33644;SDS011;19986;48.190;16.366;2023-04-25T01:51:15;39.97;;;38.00;;
33644;SDS011;19986;48.190;16.366;2023-04-25T01:53:41;41.35;;;39.28;;
33644;SDS011;19986;48.190;16.366;2023-04-25T01:56:08;41.58;;;39.40;;
33644;SDS011;19986;48.190;16.366;2023-04-25T01:58:34;40.10;;;38.10;;
33644;SDS011;19986;48.190;16.366;2023-04-25T02:00:59;42.33;;;40.33;;
33644;SDS011;19986;48.190;16.366;2023-04-25T02:03:26;41.38;;;39.38;;
33644;SDS011;19986;48.190;16.366;2023-04-25T02:05:52;42.33;;;40.22;;
33644;SDS011;19986;48.190;16.366;2023-04-25T02:08:18;39.72;;;37.72;;
33644;SDS011;19986;48.190;16.366;2023-04-25T02:10:45;40.20;;;38.38;;
33644;SDS011;19986;48.190;16.366;2023-04-25T02:13:11;38.45;;;36.63;;
33644;SDS011;19986;48.190;16.366;2023-04-25T02:15:37;40.47;;;38.47;;
33644;SDS011;19986;48.190;16.366;2023-04-25T02:18:04;45.05;;;42.95;;
33644;SDS011;19986;48.190;16.366;2023-04-25T02:20:31;43.90;;;41.70;;
33644;SDS011;19986;48.190;16.366;2023-04-25T02:22:57;41.83;;;39.83;;
33644;SDS011;19986;48.190;16.366;2023-04-25T02:25:24;42.25;;;40.15;;
33644;SDS011;19986;48.190;16.366;2023-04-25T02:27:50;39.38;;;37.58;;
33644;SDS011;19986;48.190;16.366;2023-04-25T02:30:16;40.72;;;38.83;;
33644;SDS011;19986;48.190;16.366;2023-04-25T02:32:42;40.65;;;38.65;;
33644;SDS011;19986;48.190;16.366;2023-04-25T02:35:09;41.15;;;39.22;;
33644;SDS011;19986;48.190;16.366;2023-04-25T02:37:36;42.63;;;40.63;;
33644;SDS011;19986;48.190;16.366;2023-04-25T02:40:04;42.47;;;40.47;;
33644;SDS011;19986;48.190;16.366;2023-04-25T02:42:31;40.83;;;38.72;;
33644;SDS011;19986;48.190;16.366;2023-04-25T02:44:57;41.80;;;39.63;;
33644;SDS011;19986;48.190;16.366;2023-04-25T02:47:24;41.03;;;39.00;;
33644;SDS011;19986;48.190;16.366;2023-04-25T02:49:51;39.97;;;38.00;;
33644;SDS011;19986;48.190;16.366;2023-04-25T02:52:16;41.10;;;38.95;;
33644;SDS011;19986;48.190;16.366;2023-04-25T02:54:42;42.03;;;39.97;;
33644;SDS011;19986;48.190;16.366;2023-04-25T02:57:08;41.53;;;39.42;;
33644;SDS011;19986;48.190;16.366;2023-04-25T02:59:35;42.13;;;40.13;;
33644;SDS011;19986;48.190;16.366;2023-04-25T03:02:20;40.20;;;38.20;;
33644;SDS011;19986;48.190;16.366;2023-04-25T03:04:46;41.10;;;39.00;;
33644;SDS011;19986;48.190;16.366;2023-04-25T03:07:13;42.75;;;40.70;;
33644;SDS011;19986;48.190;16.366;2023-04-25T03:09:38;42.63;;;40.60;;
33644;SDS011;19986;48.190;16.366;2023-04-25T03:12:04;42.10;;;40.03;;
33644;SDS011;19986;48.190;16.366;2023-04-25T03:14:30;41.85;;;39.88;;
33644;SDS011;19986;48.190;16.366;2023-04-25T03:16:57;38.97;;;37.17;;
33644;SDS011;19986;48.190;16.366;2023-04-25T03:19:23;40.63;;;38.60;;
33644;SDS011;19986;48.190;16.366;2023-04-25T03:21:49;40.33;;;38.42;;
33644;SDS011;19986;48.190;16.366;2023-04-25T03:24:15;39.92;;;38.03;;
33644;SDS011;19986;48.190;16.366;2023-04-25T03:26:41;41.65;;;39.65;;
33644;SDS011;19986;48.190;16.366;2023-04-25T03:29:08;41.50;;;39.30;;
33644;SDS011;19986;48.190;16.366;2023-04-25T03:31:34;39.85;;;37.95;;
33644;SDS011;19986;48.190;16.366;2023-04-25T03:34:00;42.20;;;40.00;;
33644;SDS011;19986;48.190;16.366;2023-04-25T03:36:26;41.00;;;38.90;;
33644;SDS011;19986;48.190;16.366;2023-04-25T03:38:53;40.97;;;38.88;;
33644;SDS011;19986;48.190;16.366;2023-04-25T03:41:19;40.53;;;38.58;;
33644;SDS011;19986;48.190;16.366;2023-04-25T03:43:45;38.97;;;37.08;;
33644;SDS011;19986;48.190;16.366;2023-04-25T03:46:11;39.70;;;37.80;;
33644;SDS011;19986;48.190;16.366;2023-04-25T03:48:37;42.45;;;40.35;;
33644;SDS011;19986;48.190;16.366;2023-04-25T03:51:02;41.83;;;39.83;;
33644;SDS011;19986;48.190;16.366;2023-04-25T03:53:28;42.33;;;40.22;;
33644;SDS011;19986;48.190;16.366;2023-04-25T03:55:54;43.05;;;40.95;;
33644;SDS011;19986;48.190;16.366;2023-04-25T03:58:20;46.30;;;43.95;;
33644;SDS011;19986;48.190;16.366;2023-04-25T04:00:48;42.97;;;40.60;;
33644;SDS011;19986;48.190;16.366;2023-04-25T04:03:14;42.95;;;40.75;;
33644;SDS011;19986;48.190;16.366;2023-04-25T04:05:39;42.00;;;39.90;;
33644;SDS011;19986;48.190;16.366;2023-04-25T04:08:06;40.58;;;38.67;;
33644;SDS011;19986;48.190;16.366;2023-04-25T04:10:32;41.95;;;39.78;;
33644;SDS011;19986;48.190;16.366;2023-04-25T04:12:58;43.80;;;41.30;;
33644;SDS011;19986;48.190;16.366;2023-04-25T04:15:23;41.70;;;39.40;;
33644;SDS011;19986;48.190;16.366;2023-04-25T04:17:49;42.42;;;40.33;;
33644;SDS011;19986;48.190;16.366;2023-04-25T04:20:15;41.92;;;39.22;;
33644;SDS011;19986;48.190;16.366;2023-04-25T04:22:41;43.30;;;41.17;;
33644;SDS011;19986;48.190;16.366;2023-04-25T04:25:07;42.70;;;40.50;;
33644;SDS011;19986;48.190;16.366;2023-04-25T04:27:33;42.03;;;39.78;;
33644;SDS011;19986;48.190;16.366;2023-04-25T04:29:59;43.00;;;40.58;;
33644;SDS011;19986;48.190;16.366;2023-04-25T04:32:25;41.28;;;39.22;;
33644;SDS011;19986;48.190;16.366;2023-04-25T04:34:52;43.00;;;40.70;;
33644;SDS011;19986;48.190;16.366;2023-04-25T04:37:20;42.42;;;40.33;;
33644;SDS011;19986;48.190;16.366;2023-04-25T04:39:47;50.30;;;47.28;;
33644;SDS011;19986;48.190;16.366;2023-04-25T04:42:15;42.15;;;39.92;;
33644;SDS011;19986;48.190;16.366;2023-04-25T04:44:41;43.92;;;41.53;;
33644;SDS011;19986;48.190;16.366;2023-04-25T04:47:09;45.42;;;42.85;;
33644;SDS011;19986;48.190;16.366;2023-04-25T04:49:35;44.30;;;42.08;;
33644;SDS011;19986;48.190;16.366;2023-04-25T04:52:01;44.15;;;41.85;;
33644;SDS011;19986;48.190;16.366;2023-04-25T04:54:27;46.35;;;43.85;;
33644;SDS011;19986;48.190;16.366;2023-04-25T04:56:53;42.28;;;40.15;;
33644;SDS011;19986;48.190;16.366;2023-04-25T04:59:19;41.85;;;39.75;;
33644;SDS011;19986;48.190;16.366;2023-04-25T05:01:44;43.83;;;41.42;;
33644;SDS011;19986;48.190;16.366;2023-04-25T05:04:12;42.67;;;40.38;;
33644;SDS011;19986;48.190;16.366;2023-04-25T05:06:37;44.42;;;42.13;;
33644;SDS011;19986;48.190;16.366;2023-04-25T05:09:03;42.65;;;40.33;;
33644;SDS011;19986;48.190;16.366;2023-04-25T05:11:29;43.95;;;41.65;;
33644;SDS011;19986;48.190;16.366;2023-04-25T05:13:55;45.00;;;42.40;;
33644;SDS011;19986;48.190;16.366;2023-04-25T05:16:21;43.13;;;40.78;;
33644;SDS011;19986;48.190;16.366;2023-04-25T05:18:47;47.85;;;44.95;;
33644;SDS011;19986;48.190;16.366;2023-04-25T05:21:13;45.83;;;43.53;;
33644;SDS011;19986;48.190;16.366;2023-04-25T05:23:39;42.42;;;40.33;;
33644;SDS011;19986;48.190;16.366;2023-04-25T05:26:04;42.28;;;40.13;;
33644;SDS011;19986;48.190;16.366;2023-04-25T05:28:30;41.97;;;39.67;;
33644;SDS011;19986;48.190;16.366;2023-04-25T05:30:56;44.35;;;42.15;;
33644;SDS011;19986;48.190;16.366;2023-04-25T05:33:22;44.92;;;42.50;;
33644;SDS011;19986;48.190;16.366;2023-04-25T05:35:48;45.10;;;42.60;;
33644;SDS011;19986;48.190;16.366;2023-04-25T05:38:14;44.00;;;41.65;;
33644;SDS011;19986;48.190;16.366;2023-04-25T05:40:40;44.05;;;41.47;;
33644;SDS011;19986;48.190;16.366;2023-04-25T05:43:06;45.28;;;42.70;;
33644;SDS011;19986;48.190;16.366;2023-04-25T05:45:32;44.67;;;42.45;;
33644;SDS011;19986;48.190;16.366;2023-04-25T05:47:58;42.60;;;40.20;;
33644;SDS011;19986;48.190;16.366;2023-04-25T05:50:24;44.85;;;42.50;;
33644;SDS011;19986;48.190;16.366;2023-04-25T05:52:50;45.38;;;42.67;;
33644;SDS011;19986;48.190;16.366;2023-04-25T05:55:16;43.97;;;41.55;;
33644;SDS011;19986;48.190;16.366;2023-04-25T05:57:42;43.50;;;40.72;;
33644;SDS011;19986;48.190;16.366;2023-04-25T06:00:11;43.40;;;41.03;;
33644;SDS011;19986;48.190;16.366;2023-04-25T06:02:38;44.55;;;41.85;;
33644;SDS011;19986;48.190;16.366;2023-04-25T06:05:04;43.65;;;41.20;;
33644;SDS011;19986;48.190;16.366;2023-04-25T06:07:30;43.00;;;40.80;;
33644;SDS011;19986;48.190;16.366;2023-04-25T06:09:56;41.92;;;39.70;;
33644;SDS011;19986;48.190;16.366;2023-04-25T06:12:22;43.20;;;40.72;;
33644;SDS011;19986;48.190;16.366;2023-04-25T06:14:49;43.13;;;40.92;;
33644;SDS011;19986;48.190;16.366;2023-04-25T06:17:15;45.08;;;42.45;;
33644;SDS011;19986;48.190;16.366;2023-04-25T06:19:42;42.83;;;40.38;;
33644;SDS011;19986;48.190;16.366;2023-04-25T06:22:09;43.47;;;41.15;;
33644;SDS011;19986;48.190;16.366;2023-04-25T06:24:35;42.78;;;40.38;;
33644;SDS011;19986;48.190;16.366;2023-04-25T06:27:01;41.50;;;39.33;;
33644;SDS011;19986;48.190;16.366;2023-04-25T06:29:27;40.17;;;38.28;;
33644;SDS011;19986;48.190;16.366;2023-04-25T06:31:53;41.05;;;38.95;;
33644;SDS011;19986;48.190;16.366;2023-04-25T06:34:34;41.78;;;39.17;;
33644;SDS011;19986;48.190;16.366;2023-04-25T06:37:00;41.83;;;39.83;;
33644;SDS011;19986;48.190;16.366;2023-04-25T06:39:26;42.50;;;40.40;;
33644;SDS011;19986;48.190;16.366;2023-04-25T06:41:51;42.88;;;40.13;;
33644;SDS011;19986;48.190;16.366;2023-04-25T06:44:18;42.92;;;40.83;;
33644;SDS011;19986;48.190;16.366;2023-04-25T06:46:44;42.47;;;40.17;;
33644;SDS011;19986;48.190;16.366;2023-04-25T06:49:10;41.03;;;38.88;;
33644;SDS011;19986;48.190;16.366;2023-04-25T06:51:36;40.60;;;38.60;;
33644;SDS011;19986;48.190;16.366;2023-04-25T06:54:02;39.72;;;37.63;;
33644;SDS011;19986;48.190;16.366;2023-04-25T06:56:29;41.95;;;39.83;;
33644;SDS011;19986;48.190;16.366;2023-04-25T06:58:56;41.80;;;39.20;;
33644;SDS011;19986;48.190;16.366;2023-04-25T07:01:22;40.60;;;38.50;;
33644;SDS011;19986;48.190;16.366;2023-04-25T07:03:48;40.58;;;38.60;;
33644;SDS011;19986;48.190;16.366;2023-04-25T07:06:14;42.58;;;40.20;;
33644;SDS011;19986;48.190;16.366;2023-04-25T07:08:40;42.17;;;40.17;;
33644;SDS011;19986;48.190;16.366;2023-04-25T07:11:07;41.63;;;39.63;;
33644;SDS011;19986;48.190;16.366;2023-04-25T07:13:33;41.10;;;39.05;;
33644;SDS011;19986;48.190;16.366;2023-04-25T07:15:59;40.78;;;38.55;;
33644;SDS011;19986;48.190;16.366;2023-04-25T07:18:25;39.25;;;37.17;;
33644;SDS011;19986;48.190;16.366;2023-04-25T07:20:51;41.60;;;39.38;;
33644;SDS011;19986;48.190;16.366;2023-04-25T07:23:17;40.88;;;38.70;;
33644;SDS011;19986;48.190;16.366;2023-04-25T07:25:43;40.55;;;38.28;;
33644;SDS011;19986;48.190;16.366;2023-04-25T07:28:09;39.08;;;37.17;;
33644;SDS011;19986;48.190;16.366;2023-04-25T07:30:35;39.08;;;36.97;;
33644;SDS011;19986;48.190;16.366;2023-04-25T07:33:03;40.30;;;38.13;;
33644;SDS011;19986;48.190;16.366;2023-04-25T07:35:29;39.60;;;37.67;;
33644;SDS011;19986;48.190;16.366;2023-04-25T07:37:55;42.58;;;40.42;;
33644;SDS011;19986;48.190;16.366;2023-04-25T07:40:21;38.85;;;36.67;;
33644;SDS011;19986;48.190;16.366;2023-04-25T07:42:49;41.92;;;39.55;;
33644;SDS011;19986;48.190;16.366;2023-04-25T07:45:14;40.78;;;38.65;;
33644;SDS011;19986;48.190;16.366;2023-04-25T07:47:41;38.92;;;36.92;;
33644;SDS011;19986;48.190;16.366;2023-04-25T07:50:07;38.33;;;36.30;;
33644;SDS011;19986;48.190;16.366;2023-04-25T07:52:35;42.40;;;40.17;;
33644;SDS011;19986;48.190;16.366;2023-04-25T07:55:01;40.05;;;37.97;;
33644;SDS011;19986;48.190;16.366;2023-04-25T07:57:28;41.58;;;39.47;;
33644;SDS011;19986;48.190;16.366;2023-04-25T07:59:55;41.38;;;39.28;;
33644;SDS011;19986;48.190;16.366;2023-04-25T08:02:20;40.72;;;38.55;;
33644;SDS011;19986;48.190;16.366;2023-04-25T08:04:46;42.72;;;40.63;;
33644;SDS011;19986;48.190;16.366;2023-04-25T08:07:14;41.95;;;39.38;;
33644;SDS011;19986;48.190;16.366;2023-04-25T08:09:43;41.13;;;38.58;;
33644;SDS011;19986;48.190;16.366;2023-04-25T08:12:09;40.47;;;38.47;;
33644;SDS011;19986;48.190;16.366;2023-04-25T08:14:35;41.20;;;38.85;;
33644;SDS011;19986;48.190;16.366;2023-04-25T08:17:05;41.22;;;39.22;;
33644;SDS011;19986;48.190;16.366;2023-04-25T08:19:31;40.65;;;38.58;;
33644;SDS011;19986;48.190;16.366;2023-04-25T08:21:57;39.55;;;37.40;;
33644;SDS011;19986;48.190;16.366;2023-04-25T08:24:23;40.38;;;38.38;;
33644;SDS011;19986;48.190;16.366;2023-04-25T08:26:48;40.72;;;38.65;;
33644;SDS011;19986;48.190;16.366;2023-04-25T08:29:14;38.22;;;36.30;;
33644;SDS011;19986;48.190;16.366;2023-04-25T08:31:40;38.60;;;36.63;;
33644;SDS011;19986;48.190;16.366;2023-04-25T08:34:06;38.28;;;36.47;;
33644;SDS011;19986;48.190;16.366;2023-04-25T08:36:32;40.83;;;38.83;;
33644;SDS011;19986;48.190;16.366;2023-04-25T08:38:58;39.05;;;37.13;;
33644;SDS011;19986;48.190;16.366;2023-04-25T08:41:24;40.88;;;38.88;;
33644;SDS011;19986;48.190;16.366;2023-04-25T08:43:50;39.80;;;37.67;;
33644;SDS011;19986;48.190;16.366;2023-04-25T08:46:17;40.00;;;37.80;;
33644;SDS011;19986;48.190;16.366;2023-04-25T08:48:44;40.40;;;38.22;;
33644;SDS011;19986;48.190;16.366;2023-04-25T08:51:15;38.25;;;36.45;;
33644;SDS011;19986;48.190;16.366;2023-04-25T08:53:48;38.05;;;36.25;;
33644;SDS011;19986;48.190;16.366;2023-04-25T08:56:16;38.85;;;37.03;;
33644;SDS011;19986;48.190;16.366;2023-04-25T08:58:47;38.85;;;36.80;;
33644;SDS011;19986;48.190;16.366;2023-04-25T09:01:15;38.78;;;36.95;;
33644;SDS011;19986;48.190;16.366;2023-04-25T09:03:42;38.90;;;36.97;;
33644;SDS011;19986;48.190;16.366;2023-04-25T09:06:10;37.92;;;36.05;;
33644;SDS011;19986;48.190;16.366;2023-04-25T09:08:36;39.30;;;37.40;;
33644;SDS011;19986;48.190;16.366;2023-04-25T09:11:02;38.15;;;36.17;;
33644;SDS011;19986;48.190;16.366;2023-04-25T09:13:28;39.80;;;37.63;;
33644;SDS011;19986;48.190;16.366;2023-04-25T09:15:55;42.05;;;39.88;;
33644;SDS011;19986;48.190;16.366;2023-04-25T09:18:28;37.30;;;35.35;;
33644;SDS011;19986;48.190;16.366;2023-04-25T09:20:56;38.58;;;36.67;;
33644;SDS011;19986;48.190;16.366;2023-04-25T09:23:30;41.53;;;39.42;;
33644;SDS011;19986;48.190;16.366;2023-04-25T09:25:58;41.13;;;39.13;;
33644;SDS011;19986;48.190;16.366;2023-04-25T09:28:24;39.78;;;37.85;;
33644;SDS011;19986;48.190;16.366;2023-04-25T09:30:54;37.90;;;35.90;;
33644;SDS011;19986;48.190;16.366;2023-04-25T09:33:31;40.38;;;38.10;;
33644;SDS011;19986;48.190;16.366;2023-04-25T09:36:02;42.90;;;40.60;;
33644;SDS011;19986;48.190;16.366;2023-04-25T09:38:29;39.22;;;37.22;;
33644;SDS011;19986;48.190;16.366;2023-04-25T09:40:57;40.53;;;38.33;;
33644;SDS011;19986;48.190;16.366;2023-04-25T09:43:24;40.72;;;38.60;;
33644;SDS011;19986;48.190;16.366;2023-04-25T09:45:51;40.17;;;37.97;;
33644;SDS011;19986;48.190;16.366;2023-04-25T09:48:21;41.13;;;39.00;;
33644;SDS011;19986;48.190;16.366;2023-04-25T09:51:03;41.53;;;39.33;;
33644;SDS011;19986;48.190;16.366;2023-04-25T09:53:31;41.08;;;38.88;;
33644;SDS011;19986;48.190;16.366;2023-04-25T09:56:04;44.15;;;41.38;;
33644;SDS011;19986;48.190;16.366;2023-04-25T09:58:32;37.00;;;35.05;;
33644;SDS011;19986;48.190;16.366;2023-04-25T10:00:59;38.03;;;36.25;;
33644;SDS011;19986;48.190;16.366;2023-04-25T10:03:29;36.25;;;34.03;;
33644;SDS011;19986;48.190;16.366;2023-04-25T10:05:57;37.85;;;35.95;;
33644;SDS011;19986;48.190;16.366;2023-04-25T10:08:30;37.72;;;35.63;;
33644;SDS011;19986;48.190;16.366;2023-04-25T10:11:02;37.83;;;35.72;;
33644;SDS011;19986;48.190;16.366;2023-04-25T10:13:30;35.53;;;33.80;;
33644;SDS011;19986;48.190;16.366;2023-04-25T10:15:57;37.08;;;35.08;;
33644;SDS011;19986;48.190;16.366;2023-04-25T10:18:27;35.83;;;33.92;;
33644;SDS011;19986;48.190;16.366;2023-04-25T10:20:54;36.85;;;35.03;;
33644;SDS011;19986;48.190;16.366;2023-04-25T10:23:25;36.15;;;34.45;;
33644;SDS011;19986;48.190;16.366;2023-04-25T10:25:53;37.85;;;35.75;;
33644;SDS011;19986;48.190;16.366;2023-04-25T10:28:19;36.20;;;34.17;;
33644;SDS011;19986;48.190;16.366;2023-04-25T10:31:02;35.80;;;34.00;;
33644;SDS011;19986;48.190;16.366;2023-04-25T10:33:33;37.83;;;36.03;;
33644;SDS011;19986;48.190;16.366;2023-04-25T10:39:02;39.05;;;37.15;;
33644;SDS011;19986;48.190;16.366;2023-04-25T10:41:32;38.97;;;36.97;;
33644;SDS011;19986;48.190;16.366;2023-04-25T10:44:12;37.90;;;35.97;;
33644;SDS011;19986;48.190;16.366;2023-04-25T10:46:40;35.67;;;33.95;;
33644;SDS011;19986;48.190;16.366;2023-04-25T10:49:06;38.40;;;36.55;;
33644;SDS011;19986;48.190;16.366;2023-04-25T10:51:35;38.03;;;36.15;;
33644;SDS011;19986;48.190;16.366;2023-04-25T10:54:02;37.05;;;35.25;;
33644;SDS011;19986;48.190;16.366;2023-04-25T10:56:31;36.70;;;35.00;;
33644;SDS011;19986;48.190;16.366;2023-04-25T10:59:10;35.17;;;33.38;;
33644;SDS011;19986;48.190;16.366;2023-04-25T11:01:40;34.33;;;32.75;;
33644;SDS011;19986;48.190;16.366;2023-04-25T11:04:22;32.45;;;30.73;;
33644;SDS011;19986;48.190;16.366;2023-04-25T11:09:35;35.20;;;33.33;;
33644;SDS011;19986;48.190;16.366;2023-04-25T11:12:04;31.60;;;30.15;;
33644;SDS011;19986;48.190;16.366;2023-04-25T11:14:30;31.80;;;30.17;;
33644;SDS011;19986;48.190;16.366;2023-04-25T11:16:58;30.70;;;29.20;;
33644;SDS011;19986;48.190;16.366;2023-04-25T11:19:26;29.70;;;28.13;;
33644;SDS011;19986;48.190;16.366;2023-04-25T11:21:57;31.75;;;29.55;;
33644;SDS011;19986;48.190;16.366;2023-04-25T11:27:01;31.80;;;30.25;;
33644;SDS011;19986;48.190;16.366;2023-04-25T11:29:32;33.00;;;31.27;;
33644;SDS011;19986;48.190;16.366;2023-04-25T11:31:59;33.78;;;31.70;;
33644;SDS011;19986;48.190;16.366;2023-04-25T11:34:27;32.92;;;30.90;;
33644;SDS011;19986;48.190;16.366;2023-04-25T11:36:56;34.60;;;32.22;;
33644;SDS011;19986;48.190;16.366;2023-04-25T11:39:26;33.28;;;31.30;;
33644;SDS011;19986;48.190;16.366;2023-04-25T11:41:52;36.75;;;34.55;;
33644;SDS011;19986;48.190;16.366;2023-04-25T11:44:19;34.53;;;32.33;;
33644;SDS011;19986;48.190;16.366;2023-04-25T11:46:45;36.35;;;34.55;;
33644;SDS011;19986;48.190;16.366;2023-04-25T11:49:12;37.22;;;35.33;;
33644;SDS011;19986;48.190;16.366;2023-04-25T11:51:41;37.10;;;34.92;;
33644;SDS011;19986;48.190;16.366;2023-04-25T11:54:08;37.17;;;35.28;;
33644;SDS011;19986;48.190;16.366;2023-04-25T11:56:34;38.35;;;36.55;;
33644;SDS011;19986;48.190;16.366;2023-04-25T11:59:01;39.28;;;37.40;;
33644;SDS011;19986;48.190;16.366;2023-04-25T12:01:31;38.03;;;35.95;;
33644;SDS011;19986;48.190;16.366;2023-04-25T12:04:15;39.47;;;37.50;;
33644;SDS011;19986;48.190;16.366;2023-04-25T12:06:46;38.95;;;37.05;;
33644;SDS011;19986;48.190;16.366;2023-04-25T12:09:15;39.15;;;37.15;;
33644;SDS011;19986;48.190;16.366;2023-04-25T12:14:10;36.03;;;34.22;;
33644;SDS011;19986;48.190;16.366;2023-04-25T12:16:44;37.92;;;35.88;;
33644;SDS011;19986;48.190;16.366;2023-04-25T12:19:13;37.35;;;35.40;;
33644;SDS011;19986;48.190;16.366;2023-04-25T12:21:40;35.05;;;33.40;;
33644;SDS011;19986;48.190;16.366;2023-04-25T12:24:10;36.33;;;34.63;;
33644;SDS011;19986;48.190;16.366;2023-04-25T12:27:00;36.05;;;34.25;;
33644;SDS011;19986;48.190;16.366;2023-04-25T12:29:31;35.33;;;33.53;;
33644;SDS011;19986;48.190;16.366;2023-04-25T12:31:58;35.80;;;33.90;;
33644;SDS011;19986;48.190;16.366;2023-04-25T12:34:27;34.85;;;33.15;;
33644;SDS011;19986;48.190;16.366;2023-04-25T12:36:53;35.40;;;33.65;;
33644;SDS011;19986;48.190;16.366;2023-04-25T12:39:20;35.00;;;33.03;;
33644;SDS011;19986;48.190;16.366;2023-04-25T12:41:48;35.28;;;33.55;;
33644;SDS011;19986;48.190;16.366;2023-04-25T12:44:15;35.75;;;33.90;;
33644;SDS011;19986;48.190;16.366;2023-04-25T12:46:41;36.90;;;35.10;;
33644;SDS011;19986;48.190;16.366;2023-04-25T12:49:07;37.58;;;35.55;;
33644;SDS011;19986;48.190;16.366;2023-04-25T12:51:34;34.47;;;32.78;;
33644;SDS011;19986;48.190;16.366;2023-04-25T12:54:01;38.85;;;36.90;;
33644;SDS011;19986;48.190;16.366;2023-04-25T12:56:28;37.83;;;35.83;;
33644;SDS011;19986;48.190;16.366;2023-04-25T12:58:54;36.65;;;34.95;;
33644;SDS011;19986;48.190;16.366;2023-04-25T13:01:20;38.80;;;37.00;;
33644;SDS011;19986;48.190;16.366;2023-04-25T13:03:46;37.03;;;34.92;;
33644;SDS011;19986;48.190;16.366;2023-04-25T13:06:13;37.10;;;35.40;;
33644;SDS011;19986;48.190;16.366;2023-04-25T13:08:43;36.05;;;34.45;;
33644;SDS011;19986;48.190;16.366;2023-04-25T13:11:09;39.10;;;37.30;;
33644;SDS011;19986;48.190;16.366;2023-04-25T13:13:35;37.55;;;35.75;;
33644;SDS011;19986;48.190;16.366;2023-04-25T13:16:01;37.22;;;34.97;;
33644;SDS011;19986;48.190;16.366;2023-04-25T13:18:28;37.17;;;35.45;;
33644;SDS011;19986;48.190;16.366;2023-04-25T13:20:55;35.45;;;33.47;;
33644;SDS011;19986;48.190;16.366;2023-04-25T13:23:21;36.63;;;34.83;;
33644;SDS011;19986;48.190;16.366;2023-04-25T13:25:48;35.22;;;33.53;;
33644;SDS011;19986;48.190;16.366;2023-04-25T13:28:14;37.75;;;35.95;;
33644;SDS011;19986;48.190;16.366;2023-04-25T13:30:40;39.40;;;36.90;;
33644;SDS011;19986;48.190;16.366;2023-04-25T13:33:06;37.40;;;35.60;;
33644;SDS011;19986;48.190;16.366;2023-04-25T13:35:32;38.58;;;36.78;;
33644;SDS011;19986;48.190;16.366;2023-04-25T13:38:00;36.08;;;34.05;;
33644;SDS011;19986;48.190;16.366;2023-04-25T13:40:26;36.90;;;35.20;;
33644;SDS011;19986;48.190;16.366;2023-04-25T13:42:52;38.97;;;36.85;;
33644;SDS011;19986;48.190;16.366;2023-04-25T13:45:19;36.55;;;34.85;;
33644;SDS011;19986;48.190;16.366;2023-04-25T13:47:45;36.88;;;34.97;;
33644;SDS011;19986;48.190;16.366;2023-04-25T13:50:11;36.55;;;34.95;;
33644;SDS011;19986;48.190;16.366;2023-04-25T13:52:39;37.85;;;35.95;;
33644;SDS011;19986;48.190;16.366;2023-04-25T13:55:05;36.53;;;34.45;;
33644;SDS011;19986;48.190;16.366;2023-04-25T13:57:32;36.17;;;34.47;;
33644;SDS011;19986;48.190;16.366;2023-04-25T13:59:59;37.67;;;35.58;;
33644;SDS011;19986;48.190;16.366;2023-04-25T14:02:30;36.65;;;34.95;;
33644;SDS011;19986;48.190;16.366;2023-04-25T14:04:56;37.00;;;35.15;;
33644;SDS011;19986;48.190;16.366;2023-04-25T14:07:22;37.63;;;35.10;;
33644;SDS011;19986;48.190;16.366;2023-04-25T14:09:48;35.85;;;34.15;;
33644;SDS011;19986;48.190;16.366;2023-04-25T14:12:14;36.78;;;35.15;;
33644;SDS011;19986;48.190;16.366;2023-04-25T14:14:40;37.22;;;35.33;;
33644;SDS011;19986;48.190;16.366;2023-04-25T14:17:07;37.55;;;35.50;;
33644;SDS011;19986;48.190;16.366;2023-04-25T14:19:34;35.70;;;34.10;;